sensor_id;sensor_type;location;lat;lon;timestamp;temperature;humidity
75799;DHT22;65035;44.726;37.764;2022-12-18T00:00:16;19.80;118.99
75799;DHT22;65035;44.726;37.764;2022-12-18T00:01:22;19.82;118.99
75799;DHT22;65035;44.726;37.764;2022-12-18T00:02:26;19.79;118.99
75799;DHT22;65035;44.726;37.764;2022-12-18T00:03:28;19.81;118.99
75799;DHT22;65035;44.726;37.764;2022-12-18T00:04:31;19.81;118.99
75799;DHT22;65035;44.726;37.764;2022-12-18T00:05:35;19.79;118.99
75799;DHT22;65035;44.726;37.764;2022-12-18T00:06:37;19.82;118.99
75799;DHT22;65035;44.726;37.764;2022-12-18T00:07:40;19.85;118.99
75799;DHT22;65035;44.726;37.764;2022-12-18T00:08:44;19.84;118.99
75799;DHT22;65035;44.726;37.764;2022-12-18T00:09:49;19.85;118.99
75799;DHT22;65035;44.726;37.764;2022-12-18T00:10:52;19.84;118.99
75799;DHT22;65035;44.726;37.764;2022-12-18T00:11:55;19.82;118.99
75799;DHT22;65035;44.726;37.764;2022-12-18T00:12:57;19.83;118.99
75799;DHT22;65035;44.726;37.764;2022-12-18T00:14:01;19.85;118.99
75799;DHT22;65035;44.726;37.764;2022-12-18T00:15:04;19.86;118.99
75799;DHT22;65035;44.726;37.764;2022-12-18T00:16:09;19.83;118.99
75799;DHT22;65035;44.726;37.764;2022-12-18T00:17:13;19.88;118.99
75799;DHT22;65035;44.726;37.764;2022-12-18T00:18:15;19.77;118.99
75799;DHT22;65035;44.726;37.764;2022-12-18T00:19:20;19.85;118.99
75799;DHT22;65035;44.726;37.764;2022-12-18T00:20:23;19.80;118.99
75799;DHT22;65035;44.726;37.764;2022-12-18T00:21:28;19.84;118.99
75799;DHT22;65035;44.726;37.764;2022-12-18T00:22:32;19.76;118.99
75799;DHT22;65035;44.726;37.764;2022-12-18T00:23:36;19.82;118.99
75799;DHT22;65035;44.726;37.764;2022-12-18T00:24:39;19.81;118.99
75799;DHT22;65035;44.726;37.764;2022-12-18T00:25:42;19.85;118.99
75799;DHT22;65035;44.726;37.764;2022-12-18T00:26:45;19.80;118.99
75799;DHT22;65035;44.726;37.764;2022-12-18T00:27:48;19.84;118.99
75799;DHT22;65035;44.726;37.764;2022-12-18T00:28:51;19.68;118.99
75799;DHT22;65035;44.726;37.764;2022-12-18T00:29:54;19.82;118.99
75799;DHT22;65035;44.726;37.764;2022-12-18T00:31:06;19.73;118.99
75799;DHT22;65035;44.726;37.764;2022-12-18T00:32:09;19.75;118.99
75799;DHT22;65035;44.726;37.764;2022-12-18T00:33:12;19.72;118.99
75799;DHT22;65035;44.726;37.764;2022-12-18T00:34:15;19.73;118.99
75799;DHT22;65035;44.726;37.764;2022-12-18T00:35:18;19.79;118.99
75799;DHT22;65035;44.726;37.764;2022-12-18T00:36:28;19.79;118.99
75799;DHT22;65035;44.726;37.764;2022-12-18T00:37:33;19.79;118.99
75799;DHT22;65035;44.726;37.764;2022-12-18T00:38:37;19.77;118.99
75799;DHT22;65035;44.726;37.764;2022-12-18T00:39:39;19.80;118.99
75799;DHT22;65035;44.726;37.764;2022-12-18T00:40:42;19.75;118.99
75799;DHT22;65035;44.726;37.764;2022-12-18T00:41:47;19.76;118.99
75799;DHT22;65035;44.726;37.764;2022-12-18T00:43:08;19.75;118.99
75799;DHT22;65035;44.726;37.764;2022-12-18T00:44:13;19.82;118.99
75799;DHT22;65035;44.726;37.764;2022-12-18T00:45:16;19.75;118.99
75799;DHT22;65035;44.726;37.764;2022-12-18T00:46:20;19.76;118.99
75799;DHT22;65035;44.726;37.764;2022-12-18T00:47:23;19.75;118.99
75799;DHT22;65035;44.726;37.764;2022-12-18T00:48:26;19.80;118.99
75799;DHT22;65035;44.726;37.764;2022-12-18T00:49:29;19.77;118.99
75799;DHT22;65035;44.726;37.764;2022-12-18T00:50:32;19.79;118.99
75799;DHT22;65035;44.726;37.764;2022-12-18T00:51:35;19.80;118.99
75799;DHT22;65035;44.726;37.764;2022-12-18T00:52:41;19.79;118.99
75799;DHT22;65035;44.726;37.764;2022-12-18T00:53:43;19.81;118.99
75799;DHT22;65035;44.726;37.764;2022-12-18T00:54:46;19.83;118.99
75799;DHT22;65035;44.726;37.764;2022-12-18T00:55:49;19.79;118.99
75799;DHT22;65035;44.726;37.764;2022-12-18T00:56:52;19.79;118.99
75799;DHT22;65035;44.726;37.764;2022-12-18T00:57:55;19.83;118.99
75799;DHT22;65035;44.726;37.764;2022-12-18T00:58:58;19.77;118.99
75799;DHT22;65035;44.726;37.764;2022-12-18T01:00:01;19.80;118.99
75799;DHT22;65035;44.726;37.764;2022-12-18T01:01:05;19.82;118.99
75799;DHT22;65035;44.726;37.764;2022-12-18T01:02:09;19.80;118.99
75799;DHT22;65035;44.726;37.764;2022-12-18T01:03:14;19.79;118.99
75799;DHT22;65035;44.726;37.764;2022-12-18T01:04:18;19.81;118.99
75799;DHT22;65035;44.726;37.764;2022-12-18T01:05:21;19.82;118.99
75799;DHT22;65035;44.726;37.764;2022-12-18T01:06:24;19.83;118.99
75799;DHT22;65035;44.726;37.764;2022-12-18T01:07:27;19.82;118.99
75799;DHT22;65035;44.726;37.764;2022-12-18T01:08:30;19.80;118.99
75799;DHT22;65035;44.726;37.764;2022-12-18T01:09:33;19.85;118.99
75799;DHT22;65035;44.726;37.764;2022-12-18T01:10:40;19.82;118.99
75799;DHT22;65035;44.726;37.764;2022-12-18T01:11:43;19.82;118.99
75799;DHT22;65035;44.726;37.764;2022-12-18T01:12:46;19.80;118.99
75799;DHT22;65035;44.726;37.764;2022-12-18T01:13:49;19.85;118.99
75799;DHT22;65035;44.726;37.764;2022-12-18T01:14:52;19.84;118.99
75799;DHT22;65035;44.726;37.764;2022-12-18T01:15:55;19.86;118.99
75799;DHT22;65035;44.726;37.764;2022-12-18T01:16:58;19.85;118.99
75799;DHT22;65035;44.726;37.764;2022-12-18T01:18:01;19.85;118.99
75799;DHT22;65035;44.726;37.764;2022-12-18T01:19:09;19.83;118.99
75799;DHT22;65035;44.726;37.764;2022-12-18T01:20:12;19.84;118.99
75799;DHT22;65035;44.726;37.764;2022-12-18T01:21:16;19.85;118.99
75799;DHT22;65035;44.726;37.764;2022-12-18T01:22:19;19.84;118.99
75799;DHT22;65035;44.726;37.764;2022-12-18T01:23:22;19.85;118.99
75799;DHT22;65035;44.726;37.764;2022-12-18T01:24:27;19.84;118.99
75799;DHT22;65035;44.726;37.764;2022-12-18T01:25:30;19.84;118.99
75799;DHT22;65035;44.726;37.764;2022-12-18T01:26:33;19.85;118.99
75799;DHT22;65035;44.726;37.764;2022-12-18T01:27:36;19.89;118.99
75799;DHT22;65035;44.726;37.764;2022-12-18T01:28:39;19.86;118.99
75799;DHT22;65035;44.726;37.764;2022-12-18T01:29:42;19.84;118.99
75799;DHT22;65035;44.726;37.764;2022-12-18T01:30:45;19.87;118.99
75799;DHT22;65035;44.726;37.764;2022-12-18T01:31:48;19.87;118.99
75799;DHT22;65035;44.726;37.764;2022-12-18T01:32:51;19.87;118.99
75799;DHT22;65035;44.726;37.764;2022-12-18T01:33:56;19.87;118.99
75799;DHT22;65035;44.726;37.764;2022-12-18T01:34:59;19.90;118.99
75799;DHT22;65035;44.726;37.764;2022-12-18T01:36:02;19.87;118.99
75799;DHT22;65035;44.726;37.764;2022-12-18T01:37:05;19.87;118.99
75799;DHT22;65035;44.726;37.764;2022-12-18T01:38:08;19.87;118.99
75799;DHT22;65035;44.726;37.764;2022-12-18T01:39:12;19.87;118.99
75799;DHT22;65035;44.726;37.764;2022-12-18T01:40:16;19.84;118.99
75799;DHT22;65035;44.726;37.764;2022-12-18T01:41:23;19.89;118.99
75799;DHT22;65035;44.726;37.764;2022-12-18T01:42:27;19.88;118.99
75799;DHT22;65035;44.726;37.764;2022-12-18T01:46:19;19.88;118.99
75799;DHT22;65035;44.726;37.764;2022-12-18T01:47:30;19.91;118.99
75799;DHT22;65035;44.726;37.764;2022-12-18T01:48:34;19.86;118.99
75799;DHT22;65035;44.726;37.764;2022-12-18T01:49:39;19.91;118.99
75799;DHT22;65035;44.726;37.764;2022-12-18T01:50:42;19.87;118.99
75799;DHT22;65035;44.726;37.764;2022-12-18T01:51:45;19.87;118.99
75799;DHT22;65035;44.726;37.764;2022-12-18T01:52:55;19.91;118.99
75799;DHT22;65035;44.726;37.764;2022-12-18T01:53:59;19.89;118.99
75799;DHT22;65035;44.726;37.764;2022-12-18T01:55:04;19.88;118.99
75799;DHT22;65035;44.726;37.764;2022-12-18T01:56:08;19.89;118.99
75799;DHT22;65035;44.726;37.764;2022-12-18T01:57:11;19.94;118.99
75799;DHT22;65035;44.726;37.764;2022-12-18T01:58:14;19.97;118.99
75799;DHT22;65035;44.726;37.764;2022-12-18T01:59:18;19.91;118.99
75799;DHT22;65035;44.726;37.764;2022-12-18T02:00:22;19.86;118.99
75799;DHT22;65035;44.726;37.764;2022-12-18T02:01:26;19.87;118.99
75799;DHT22;65035;44.726;37.764;2022-12-18T02:02:29;19.90;118.99
75799;DHT22;65035;44.726;37.764;2022-12-18T02:03:33;19.88;118.99
75799;DHT22;65035;44.726;37.764;2022-12-18T02:04:35;19.84;118.99
75799;DHT22;65035;44.726;37.764;2022-12-18T02:05:46;19.89;118.99
75799;DHT22;65035;44.726;37.764;2022-12-18T02:08:25;19.87;118.99
75799;DHT22;65035;44.726;37.764;2022-12-18T02:09:46;19.87;118.99
75799;DHT22;65035;44.726;37.764;2022-12-18T02:11:06;19.88;118.99
75799;DHT22;65035;44.726;37.764;2022-12-18T02:12:18;19.88;118.99
75799;DHT22;65035;44.726;37.764;2022-12-18T02:13:53;19.87;118.99
75799;DHT22;65035;44.726;37.764;2022-12-18T02:17:22;19.89;118.99
75799;DHT22;65035;44.726;37.764;2022-12-18T02:18:32;19.86;118.99
75799;DHT22;65035;44.726;37.764;2022-12-18T02:23:47;19.92;118.99
75799;DHT22;65035;44.726;37.764;2022-12-18T02:26:50;19.94;118.99
75799;DHT22;65035;44.726;37.764;2022-12-18T02:27:57;19.92;118.99
75799;DHT22;65035;44.726;37.764;2022-12-18T02:29:14;19.90;118.99
75799;DHT22;65035;44.726;37.764;2022-12-18T02:30:19;19.90;118.99
75799;DHT22;65035;44.726;37.764;2022-12-18T02:31:28;19.95;118.99
75799;DHT22;65035;44.726;37.764;2022-12-18T02:32:38;19.92;118.99
75799;DHT22;65035;44.726;37.764;2022-12-18T02:33:44;19.88;118.99
75799;DHT22;65035;44.726;37.764;2022-12-18T02:34:49;19.92;118.99
75799;DHT22;65035;44.726;37.764;2022-12-18T02:35:54;19.90;118.99
75799;DHT22;65035;44.726;37.764;2022-12-18T02:37:02;19.94;118.99
75799;DHT22;65035;44.726;37.764;2022-12-18T02:38:12;19.90;118.99
75799;DHT22;65035;44.726;37.764;2022-12-18T02:39:19;19.88;118.99
75799;DHT22;65035;44.726;37.764;2022-12-18T02:40:32;19.92;118.99
75799;DHT22;65035;44.726;37.764;2022-12-18T02:41:36;19.97;118.99
75799;DHT22;65035;44.726;37.764;2022-12-18T02:42:42;19.94;118.99
75799;DHT22;65035;44.726;37.764;2022-12-18T02:44:00;19.95;118.99
75799;DHT22;65035;44.726;37.764;2022-12-18T02:45:06;19.92;118.99
75799;DHT22;65035;44.726;37.764;2022-12-18T02:46:30;19.98;118.99
75799;DHT22;65035;44.726;37.764;2022-12-18T02:47:40;19.92;118.99
75799;DHT22;65035;44.726;37.764;2022-12-18T02:48:46;19.94;118.99
75799;DHT22;65035;44.726;37.764;2022-12-18T02:51:10;19.94;118.99
75799;DHT22;65035;44.726;37.764;2022-12-18T02:52:45;19.96;118.99
75799;DHT22;65035;44.726;37.764;2022-12-18T02:53:56;19.99;118.99
75799;DHT22;65035;44.726;37.764;2022-12-18T02:56:20;19.98;118.99
75799;DHT22;65035;44.726;37.764;2022-12-18T02:57:55;19.99;118.99
75799;DHT22;65035;44.726;37.764;2022-12-18T02:59:06;19.98;118.99
75799;DHT22;65035;44.726;37.764;2022-12-18T03:00:41;20.01;118.99
75799;DHT22;65035;44.726;37.764;2022-12-18T03:02:01;20.01;118.99
75799;DHT22;65035;44.726;37.764;2022-12-18T03:03:21;19.98;118.99
75799;DHT22;65035;44.726;37.764;2022-12-18T03:06:12;19.98;118.99
75799;DHT22;65035;44.726;37.764;2022-12-18T03:07:27;20.00;118.99
75799;DHT22;65035;44.726;37.764;2022-12-18T03:08:39;19.96;118.99
75799;DHT22;65035;44.726;37.764;2022-12-18T03:09:47;19.98;118.99
75799;DHT22;65035;44.726;37.764;2022-12-18T03:10:58;20.00;118.99
75799;DHT22;65035;44.726;37.764;2022-12-18T03:12:10;19.98;118.99
75799;DHT22;65035;44.726;37.764;2022-12-18T03:14:38;19.96;118.99
75799;DHT22;65035;44.726;37.764;2022-12-18T03:15:48;20.01;118.99
75799;DHT22;65035;44.726;37.764;2022-12-18T03:16:54;19.98;118.99
75799;DHT22;65035;44.726;37.764;2022-12-18T03:18:22;19.98;118.99
75799;DHT22;65035;44.726;37.764;2022-12-18T03:19:29;19.99;118.99
75799;DHT22;65035;44.726;37.764;2022-12-18T03:20:37;20.01;118.99
75799;DHT22;65035;44.726;37.764;2022-12-18T03:21:44;19.99;118.99
75799;DHT22;65035;44.726;37.764;2022-12-18T03:22:54;19.99;118.99
75799;DHT22;65035;44.726;37.764;2022-12-18T03:23:59;19.98;118.99
75799;DHT22;65035;44.726;37.764;2022-12-18T03:25:06;19.99;118.99
75799;DHT22;65035;44.726;37.764;2022-12-18T03:26:15;19.97;118.99
75799;DHT22;65035;44.726;37.764;2022-12-18T03:27:20;19.94;118.99
75799;DHT22;65035;44.726;37.764;2022-12-18T03:28:28;20.00;118.99
75799;DHT22;65035;44.726;37.764;2022-12-18T03:29:44;20.03;118.99
75799;DHT22;65035;44.726;37.764;2022-12-18T03:30:55;20.02;118.99
75799;DHT22;65035;44.726;37.764;2022-12-18T03:32:10;19.98;118.99
75799;DHT22;65035;44.726;37.764;2022-12-18T03:33:25;19.97;118.99
75799;DHT22;65035;44.726;37.764;2022-12-18T03:34:34;19.98;118.99
75799;DHT22;65035;44.726;37.764;2022-12-18T03:35:43;19.98;118.99
75799;DHT22;65035;44.726;37.764;2022-12-18T03:36:47;20.02;118.99
75799;DHT22;65035;44.726;37.764;2022-12-18T03:37:50;20.02;118.99
75799;DHT22;65035;44.726;37.764;2022-12-18T03:38:53;20.02;118.99
75799;DHT22;65035;44.726;37.764;2022-12-18T03:40:00;20.00;118.99
75799;DHT22;65035;44.726;37.764;2022-12-18T03:42:48;20.04;118.99
75799;DHT22;65035;44.726;37.764;2022-12-18T03:44:15;20.02;118.99
75799;DHT22;65035;44.726;37.764;2022-12-18T03:45:32;20.03;118.99
75799;DHT22;65035;44.726;37.764;2022-12-18T03:48:29;20.03;118.99
75799;DHT22;65035;44.726;37.764;2022-12-18T03:51:02;19.99;118.99
75799;DHT22;65035;44.726;37.764;2022-12-18T03:52:23;20.03;118.99
75799;DHT22;65035;44.726;37.764;2022-12-18T03:54:41;20.00;118.99
75799;DHT22;65035;44.726;37.764;2022-12-18T03:55:50;20.03;118.99
75799;DHT22;65035;44.726;37.764;2022-12-18T03:57:11;19.96;118.99
75799;DHT22;65035;44.726;37.764;2022-12-18T03:58:20;20.01;118.99
75799;DHT22;65035;44.726;37.764;2022-12-18T03:59:46;19.99;118.99
75799;DHT22;65035;44.726;37.764;2022-12-18T04:00:56;19.98;118.99
75799;DHT22;65035;44.726;37.764;2022-12-18T04:02:02;20.01;118.99
75799;DHT22;65035;44.726;37.764;2022-12-18T04:03:07;19.97;118.99
75799;DHT22;65035;44.726;37.764;2022-12-18T04:04:17;19.99;118.99
75799;DHT22;65035;44.726;37.764;2022-12-18T04:05:22;19.98;118.99
75799;DHT22;65035;44.726;37.764;2022-12-18T04:06:28;19.98;118.99
75799;DHT22;65035;44.726;37.764;2022-12-18T04:07:32;20.04;118.99
75799;DHT22;65035;44.726;37.764;2022-12-18T04:08:35;19.99;118.99
75799;DHT22;65035;44.726;37.764;2022-12-18T04:09:41;19.96;118.99
75799;DHT22;65035;44.726;37.764;2022-12-18T04:10:47;20.02;118.99
75799;DHT22;65035;44.726;37.764;2022-12-18T04:11:51;20.01;118.99
75799;DHT22;65035;44.726;37.764;2022-12-18T04:12:58;20.01;118.99
75799;DHT22;65035;44.726;37.764;2022-12-18T04:14:01;20.04;118.99
75799;DHT22;65035;44.726;37.764;2022-12-18T04:15:08;20.06;118.99
75799;DHT22;65035;44.726;37.764;2022-12-18T04:16:11;20.00;118.99
75799;DHT22;65035;44.726;37.764;2022-12-18T04:17:17;20.10;118.99
75799;DHT22;65035;44.726;37.764;2022-12-18T04:18:19;20.04;118.99
75799;DHT22;65035;44.726;37.764;2022-12-18T04:19:23;19.95;118.99
75799;DHT22;65035;44.726;37.764;2022-12-18T04:20:27;20.04;118.99
75799;DHT22;65035;44.726;37.764;2022-12-18T04:21:30;20.05;118.99
75799;DHT22;65035;44.726;37.764;2022-12-18T04:22:33;20.07;118.99
75799;DHT22;65035;44.726;37.764;2022-12-18T04:23:36;20.06;118.99
75799;DHT22;65035;44.726;37.764;2022-12-18T04:24:39;20.04;118.99
75799;DHT22;65035;44.726;37.764;2022-12-18T04:25:48;20.04;118.99
75799;DHT22;65035;44.726;37.764;2022-12-18T04:27:01;20.04;118.99
75799;DHT22;65035;44.726;37.764;2022-12-18T04:28:08;20.06;118.99
75799;DHT22;65035;44.726;37.764;2022-12-18T04:29:13;20.03;118.99
75799;DHT22;65035;44.726;37.764;2022-12-18T04:30:16;20.05;118.99
75799;DHT22;65035;44.726;37.764;2022-12-18T04:31:21;20.04;118.99
75799;DHT22;65035;44.726;37.764;2022-12-18T04:32:24;20.03;118.99
75799;DHT22;65035;44.726;37.764;2022-12-18T04:33:26;20.05;118.99
75799;DHT22;65035;44.726;37.764;2022-12-18T04:34:30;20.06;118.99
75799;DHT22;65035;44.726;37.764;2022-12-18T04:35:33;20.07;118.99
75799;DHT22;65035;44.726;37.764;2022-12-18T04:36:36;20.06;118.99
75799;DHT22;65035;44.726;37.764;2022-12-18T04:37:39;20.09;118.99
75799;DHT22;65035;44.726;37.764;2022-12-18T04:38:42;20.07;118.99
75799;DHT22;65035;44.726;37.764;2022-12-18T04:39:48;20.02;118.99
75799;DHT22;65035;44.726;37.764;2022-12-18T04:40:58;20.04;118.99
75799;DHT22;65035;44.726;37.764;2022-12-18T04:42:02;20.01;118.99
75799;DHT22;65035;44.726;37.764;2022-12-18T04:43:05;20.01;118.99
75799;DHT22;65035;44.726;37.764;2022-12-18T04:44:08;20.03;118.99
75799;DHT22;65035;44.726;37.764;2022-12-18T04:45:12;20.04;118.99
75799;DHT22;65035;44.726;37.764;2022-12-18T04:46:15;20.03;118.99
75799;DHT22;65035;44.726;37.764;2022-12-18T04:47:17;20.04;118.99
75799;DHT22;65035;44.726;37.764;2022-12-18T04:48:20;20.07;118.99
75799;DHT22;65035;44.726;37.764;2022-12-18T04:49:26;20.01;118.99
75799;DHT22;65035;44.726;37.764;2022-12-18T04:50:29;20.01;118.99
75799;DHT22;65035;44.726;37.764;2022-12-18T04:51:32;20.01;118.99
75799;DHT22;65035;44.726;37.764;2022-12-18T04:52:36;20.01;118.99
75799;DHT22;65035;44.726;37.764;2022-12-18T04:53:39;20.02;118.99
75799;DHT22;65035;44.726;37.764;2022-12-18T04:54:42;20.04;118.99
75799;DHT22;65035;44.726;37.764;2022-12-18T04:55:44;19.99;118.99
75799;DHT22;65035;44.726;37.764;2022-12-18T04:56:48;19.99;118.99
75799;DHT22;65035;44.726;37.764;2022-12-18T04:57:51;20.01;118.99
75799;DHT22;65035;44.726;37.764;2022-12-18T04:58:54;20.03;118.99
75799;DHT22;65035;44.726;37.764;2022-12-18T04:59:57;20.03;118.99
75799;DHT22;65035;44.726;37.764;2022-12-18T05:01:01;20.02;118.99
75799;DHT22;65035;44.726;37.764;2022-12-18T05:02:04;19.99;118.99
75799;DHT22;65035;44.726;37.764;2022-12-18T05:03:07;19.98;118.99
75799;DHT22;65035;44.726;37.764;2022-12-18T05:04:10;19.98;118.99
75799;DHT22;65035;44.726;37.764;2022-12-18T05:05:13;20.01;118.99
75799;DHT22;65035;44.726;37.764;2022-12-18T05:06:15;20.00;118.99
75799;DHT22;65035;44.726;37.764;2022-12-18T05:07:18;19.99;118.99
75799;DHT22;65035;44.726;37.764;2022-12-18T05:08:21;20.00;118.99
75799;DHT22;65035;44.726;37.764;2022-12-18T05:09:24;20.00;118.99
75799;DHT22;65035;44.726;37.764;2022-12-18T05:10:27;20.00;118.99
75799;DHT22;65035;44.726;37.764;2022-12-18T05:11:32;19.97;118.99
75799;DHT22;65035;44.726;37.764;2022-12-18T05:12:37;20.02;118.99
75799;DHT22;65035;44.726;37.764;2022-12-18T05:14:02;19.99;118.99
75799;DHT22;65035;44.726;37.764;2022-12-18T05:15:05;20.01;118.99
75799;DHT22;65035;44.726;37.764;2022-12-18T05:16:08;19.99;118.99
75799;DHT22;65035;44.726;37.764;2022-12-18T05:17:11;20.04;118.99
75799;DHT22;65035;44.726;37.764;2022-12-18T05:18:14;19.99;118.99
75799;DHT22;65035;44.726;37.764;2022-12-18T05:19:17;20.02;118.99
75799;DHT22;65035;44.726;37.764;2022-12-18T05:20:20;19.99;118.99
75799;DHT22;65035;44.726;37.764;2022-12-18T05:21:23;20.02;118.99
75799;DHT22;65035;44.726;37.764;2022-12-18T05:22:26;20.00;118.99
75799;DHT22;65035;44.726;37.764;2022-12-18T05:23:29;19.97;118.99
75799;DHT22;65035;44.726;37.764;2022-12-18T05:24:35;19.99;118.99
75799;DHT22;65035;44.726;37.764;2022-12-18T05:25:38;19.97;118.99
75799;DHT22;65035;44.726;37.764;2022-12-18T05:26:41;20.01;118.99
75799;DHT22;65035;44.726;37.764;2022-12-18T05:27:43;20.00;118.99
75799;DHT22;65035;44.726;37.764;2022-12-18T05:28:47;20.01;118.99
75799;DHT22;65035;44.726;37.764;2022-12-18T05:29:50;20.09;118.99
75799;DHT22;65035;44.726;37.764;2022-12-18T05:30:56;20.07;118.99
75799;DHT22;65035;44.726;37.764;2022-12-18T05:31:59;20.07;118.99
75799;DHT22;65035;44.726;37.764;2022-12-18T05:33:02;20.07;118.99
75799;DHT22;65035;44.726;37.764;2022-12-18T05:34:05;20.11;118.99
75799;DHT22;65035;44.726;37.764;2022-12-18T05:35:10;20.10;118.99
75799;DHT22;65035;44.726;37.764;2022-12-18T05:36:13;20.10;118.99
75799;DHT22;65035;44.726;37.764;2022-12-18T05:37:16;20.09;118.99
75799;DHT22;65035;44.726;37.764;2022-12-18T05:38:20;20.05;118.99
75799;DHT22;65035;44.726;37.764;2022-12-18T05:39:24;20.06;118.99
75799;DHT22;65035;44.726;37.764;2022-12-18T05:40:27;20.09;118.99
75799;DHT22;65035;44.726;37.764;2022-12-18T05:41:30;20.07;118.99
75799;DHT22;65035;44.726;37.764;2022-12-18T05:42:33;20.09;118.99
75799;DHT22;65035;44.726;37.764;2022-12-18T05:43:38;20.07;118.99
75799;DHT22;65035;44.726;37.764;2022-12-18T05:44:41;20.10;118.99
75799;DHT22;65035;44.726;37.764;2022-12-18T05:45:44;20.02;118.99
75799;DHT22;65035;44.726;37.764;2022-12-18T05:46:47;20.01;118.99
75799;DHT22;65035;44.726;37.764;2022-12-18T05:47:50;19.99;118.99
75799;DHT22;65035;44.726;37.764;2022-12-18T05:48:53;20.00;118.99
75799;DHT22;65035;44.726;37.764;2022-12-18T05:49:56;20.00;118.99
75799;DHT22;65035;44.726;37.764;2022-12-18T05:51:04;20.03;118.99
75799;DHT22;65035;44.726;37.764;2022-12-18T05:52:09;20.00;118.99
75799;DHT22;65035;44.726;37.764;2022-12-18T05:53:12;20.02;118.99
75799;DHT22;65035;44.726;37.764;2022-12-18T05:54:15;19.98;118.99
75799;DHT22;65035;44.726;37.764;2022-12-18T05:55:18;19.99;118.99
75799;DHT22;65035;44.726;37.764;2022-12-18T05:56:22;20.01;118.99
75799;DHT22;65035;44.726;37.764;2022-12-18T05:57:25;20.00;118.99
75799;DHT22;65035;44.726;37.764;2022-12-18T05:58:28;20.01;118.99
75799;DHT22;65035;44.726;37.764;2022-12-18T05:59:31;20.00;118.99
75799;DHT22;65035;44.726;37.764;2022-12-18T06:00:35;20.02;118.99
75799;DHT22;65035;44.726;37.764;2022-12-18T06:01:43;20.03;118.99
75799;DHT22;65035;44.726;37.764;2022-12-18T06:02:47;20.01;118.99
75799;DHT22;65035;44.726;37.764;2022-12-18T06:03:50;20.02;118.99
75799;DHT22;65035;44.726;37.764;2022-12-18T06:04:53;20.03;118.99
75799;DHT22;65035;44.726;37.764;2022-12-18T06:05:56;20.03;118.99
75799;DHT22;65035;44.726;37.764;2022-12-18T06:06:58;20.01;118.99
75799;DHT22;65035;44.726;37.764;2022-12-18T06:08:04;20.01;118.99
75799;DHT22;65035;44.726;37.764;2022-12-18T06:09:07;19.97;118.99
75799;DHT22;65035;44.726;37.764;2022-12-18T06:10:11;20.02;118.99
75799;DHT22;65035;44.726;37.764;2022-12-18T06:11:18;20.03;118.99
75799;DHT22;65035;44.726;37.764;2022-12-18T06:12:21;20.02;118.99
75799;DHT22;65035;44.726;37.764;2022-12-18T06:13:24;20.03;118.99
75799;DHT22;65035;44.726;37.764;2022-12-18T06:14:27;20.04;118.99
75799;DHT22;65035;44.726;37.764;2022-12-18T06:15:30;20.01;118.99
75799;DHT22;65035;44.726;37.764;2022-12-18T06:16:33;20.01;118.99
75799;DHT22;65035;44.726;37.764;2022-12-18T06:17:36;20.00;118.99
75799;DHT22;65035;44.726;37.764;2022-12-18T06:18:39;19.98;118.99
75799;DHT22;65035;44.726;37.764;2022-12-18T06:19:42;20.01;118.99
75799;DHT22;65035;44.726;37.764;2022-12-18T06:20:45;20.09;118.99
75799;DHT22;65035;44.726;37.764;2022-12-18T06:21:48;20.01;118.99
75799;DHT22;65035;44.726;37.764;2022-12-18T06:22:51;19.97;118.99
75799;DHT22;65035;44.726;37.764;2022-12-18T06:23:54;19.99;118.99
75799;DHT22;65035;44.726;37.764;2022-12-18T06:24:57;19.98;118.99
75799;DHT22;65035;44.726;37.764;2022-12-18T06:26:09;19.98;118.99
75799;DHT22;65035;44.726;37.764;2022-12-18T06:27:12;19.97;118.99
75799;DHT22;65035;44.726;37.764;2022-12-18T06:28:15;20.02;118.99
75799;DHT22;65035;44.726;37.764;2022-12-18T06:29:18;19.95;118.99
75799;DHT22;65035;44.726;37.764;2022-12-18T06:30:21;19.95;118.99
75799;DHT22;65035;44.726;37.764;2022-12-18T06:31:24;19.95;118.99
75799;DHT22;65035;44.726;37.764;2022-12-18T06:32:28;20.02;118.99
75799;DHT22;65035;44.726;37.764;2022-12-18T06:33:32;20.01;118.99
75799;DHT22;65035;44.726;37.764;2022-12-18T06:34:37;19.99;118.99
75799;DHT22;65035;44.726;37.764;2022-12-18T06:35:40;19.98;118.99
75799;DHT22;65035;44.726;37.764;2022-12-18T06:36:43;19.99;118.99
75799;DHT22;65035;44.726;37.764;2022-12-18T06:37:46;19.98;118.99
75799;DHT22;65035;44.726;37.764;2022-12-18T06:38:49;20.02;118.99
75799;DHT22;65035;44.726;37.764;2022-12-18T06:39:53;20.00;118.99
75799;DHT22;65035;44.726;37.764;2022-12-18T06:40:56;19.98;118.99
75799;DHT22;65035;44.726;37.764;2022-12-18T06:41:59;19.98;118.99
75799;DHT22;65035;44.726;37.764;2022-12-18T06:43:01;20.02;118.99
75799;DHT22;65035;44.726;37.764;2022-12-18T06:44:04;19.95;118.99
75799;DHT22;65035;44.726;37.764;2022-12-18T06:45:08;19.92;118.99
75799;DHT22;65035;44.726;37.764;2022-12-18T06:46:12;19.91;118.99
75799;DHT22;65035;44.726;37.764;2022-12-18T06:47:15;19.94;118.99
75799;DHT22;65035;44.726;37.764;2022-12-18T06:48:20;19.97;118.99
75799;DHT22;65035;44.726;37.764;2022-12-18T06:49:23;19.97;118.99
75799;DHT22;65035;44.726;37.764;2022-12-18T06:50:30;19.96;118.99
75799;DHT22;65035;44.726;37.764;2022-12-18T06:51:32;19.95;118.99
75799;DHT22;65035;44.726;37.764;2022-12-18T06:52:35;20.02;118.99
75799;DHT22;65035;44.726;37.764;2022-12-18T06:53:39;19.98;118.99
75799;DHT22;65035;44.726;37.764;2022-12-18T06:54:42;19.97;118.99
75799;DHT22;65035;44.726;37.764;2022-12-18T06:55:45;19.95;118.99
75799;DHT22;65035;44.726;37.764;2022-12-18T06:56:48;19.99;118.99
75799;DHT22;65035;44.726;37.764;2022-12-18T06:57:50;19.97;118.99
75799;DHT22;65035;44.726;37.764;2022-12-18T06:58:54;19.97;118.99
75799;DHT22;65035;44.726;37.764;2022-12-18T06:59:57;19.98;118.99
75799;DHT22;65035;44.726;37.764;2022-12-18T07:01:01;20.03;118.99
75799;DHT22;65035;44.726;37.764;2022-12-18T07:02:04;20.05;118.99
75799;DHT22;65035;44.726;37.764;2022-12-18T07:03:07;20.00;118.99
75799;DHT22;65035;44.726;37.764;2022-12-18T07:04:10;20.05;118.99
75799;DHT22;65035;44.726;37.764;2022-12-18T07:05:13;20.05;118.99
75799;DHT22;65035;44.726;37.764;2022-12-18T07:06:18;20.04;118.99